sensor_id;sensor_type;location;lat;lon;timestamp;P1;durP1;ratioP1;P2;durP2;ratioP2
64936;SDS011;51452;47.698;19.050;2023-12-20T00:00:15;34.97;;;13.57;;
64936;SDS011;51452;47.698;19.050;2023-12-20T00:02:41;26.60;;;12.30;;
64936;SDS011;51452;47.698;19.050;2023-12-20T00:05:10;30.40;;;12.40;;
64936;SDS011;51452;47.698;19.050;2023-12-20T00:07:35;32.77;;;12.43;;
64936;SDS011;51452;47.698;19.050;2023-12-20T00:10:00;30.70;;;12.30;;
64936;SDS011;51452;47.698;19.050;2023-12-20T00:12:26;27.33;;;12.43;;
64936;SDS011;51452;47.698;19.050;2023-12-20T00:14:51;30.03;;;12.40;;
64936;SDS011;51452;47.698;19.050;2023-12-20T00:17:16;31.60;;;12.70;;
64936;SDS011;51452;47.698;19.050;2023-12-20T00:19:42;35.47;;;12.57;;
64936;SDS011;51452;47.698;19.050;2023-12-20T00:22:07;30.10;;;12.30;;
64936;SDS011;51452;47.698;19.050;2023-12-20T00:24:32;39.67;;;12.30;;
64936;SDS011;51452;47.698;19.050;2023-12-20T00:26:58;38.07;;;13.10;;
64936;SDS011;51452;47.698;19.050;2023-12-20T00:29:23;36.33;;;11.70;;
64936;SDS011;51452;47.698;19.050;2023-12-20T00:31:49;26.17;;;12.10;;
64936;SDS011;51452;47.698;19.050;2023-12-20T00:34:14;27.27;;;10.77;;
64936;SDS011;51452;47.698;19.050;2023-12-20T00:36:40;22.87;;;10.60;;
64936;SDS011;51452;47.698;19.050;2023-12-20T00:39:05;25.13;;;11.23;;
64936;SDS011;51452;47.698;19.050;2023-12-20T00:41:31;23.57;;;10.87;;
64936;SDS011;51452;47.698;19.050;2023-12-20T00:43:57;32.80;;;11.97;;
64936;SDS011;51452;47.698;19.050;2023-12-20T00:46:22;29.03;;;11.80;;
64936;SDS011;51452;47.698;19.050;2023-12-20T00:48:48;29.27;;;11.13;;
64936;SDS011;51452;47.698;19.050;2023-12-20T00:51:13;32.13;;;11.50;;
64936;SDS011;51452;47.698;19.050;2023-12-20T00:53:39;24.47;;;10.57;;
64936;SDS011;51452;47.698;19.050;2023-12-20T00:56:04;35.60;;;11.97;;
64936;SDS011;51452;47.698;19.050;2023-12-20T00:58:30;41.00;;;12.90;;
64936;SDS011;51452;47.698;19.050;2023-12-20T01:00:55;31.73;;;10.43;;
64936;SDS011;51452;47.698;19.050;2023-12-20T01:03:20;30.53;;;11.37;;
64936;SDS011;51452;47.698;19.050;2023-12-20T01:05:46;27.77;;;11.00;;
64936;SDS011;51452;47.698;19.050;2023-12-20T01:08:11;25.50;;;10.53;;
64936;SDS011;51452;47.698;19.050;2023-12-20T01:10:37;27.77;;;11.83;;
64936;SDS011;51452;47.698;19.050;2023-12-20T01:13:03;26.70;;;11.03;;
64936;SDS011;51452;47.698;19.050;2023-12-20T01:15:28;30.07;;;11.97;;
64936;SDS011;51452;47.698;19.050;2023-12-20T01:17:54;34.67;;;11.77;;
64936;SDS011;51452;47.698;19.050;2023-12-20T01:20:19;26.83;;;10.97;;
64936;SDS011;51452;47.698;19.050;2023-12-20T01:22:45;32.80;;;11.10;;
64936;SDS011;51452;47.698;19.050;2023-12-20T01:25:11;26.13;;;10.20;;
64936;SDS011;51452;47.698;19.050;2023-12-20T01:27:36;29.77;;;10.87;;
64936;SDS011;51452;47.698;19.050;2023-12-20T01:30:01;36.70;;;11.97;;
64936;SDS011;51452;47.698;19.050;2023-12-20T01:32:27;32.30;;;10.30;;
64936;SDS011;51452;47.698;19.050;2023-12-20T01:34:52;25.67;;;10.90;;
64936;SDS011;51452;47.698;19.050;2023-12-20T01:37:18;29.17;;;10.90;;
64936;SDS011;51452;47.698;19.050;2023-12-20T01:39:43;27.20;;;11.43;;
64936;SDS011;51452;47.698;19.050;2023-12-20T01:42:08;34.97;;;11.90;;
64936;SDS011;51452;47.698;19.050;2023-12-20T01:44:34;27.90;;;11.97;;
64936;SDS011;51452;47.698;19.050;2023-12-20T01:46:59;29.23;;;12.27;;
64936;SDS011;51452;47.698;19.050;2023-12-20T01:49:25;23.73;;;11.20;;
64936;SDS011;51452;47.698;19.050;2023-12-20T01:51:50;28.83;;;11.53;;
64936;SDS011;51452;47.698;19.050;2023-12-20T01:54:17;27.17;;;11.33;;
64936;SDS011;51452;47.698;19.050;2023-12-20T01:56:44;28.13;;;11.93;;
64936;SDS011;51452;47.698;19.050;2023-12-20T01:59:10;29.33;;;12.87;;
64936;SDS011;51452;47.698;19.050;2023-12-20T02:01:35;28.43;;;11.97;;
64936;SDS011;51452;47.698;19.050;2023-12-20T02:04:01;31.03;;;11.80;;
64936;SDS011;51452;47.698;19.050;2023-12-20T02:06:29;30.03;;;12.50;;
64936;SDS011;51452;47.698;19.050;2023-12-20T02:08:57;27.90;;;11.07;;
64936;SDS011;51452;47.698;19.050;2023-12-20T02:11:23;30.33;;;11.43;;
64936;SDS011;51452;47.698;19.050;2023-12-20T02:13:50;26.87;;;12.53;;
64936;SDS011;51452;47.698;19.050;2023-12-20T02:16:15;25.13;;;10.77;;
64936;SDS011;51452;47.698;19.050;2023-12-20T02:18:42;27.57;;;11.43;;
64936;SDS011;51452;47.698;19.050;2023-12-20T02:21:11;27.17;;;11.03;;
64936;SDS011;51452;47.698;19.050;2023-12-20T02:23:36;30.20;;;11.40;;
64936;SDS011;51452;47.698;19.050;2023-12-20T02:26:02;28.07;;;11.30;;
64936;SDS011;51452;47.698;19.050;2023-12-20T02:28:29;27.80;;;10.83;;
64936;SDS011;51452;47.698;19.050;2023-12-20T02:30:55;29.67;;;10.97;;
64936;SDS011;51452;47.698;19.050;2023-12-20T02:33:20;24.87;;;10.37;;
64936;SDS011;51452;47.698;19.050;2023-12-20T02:35:46;28.80;;;10.37;;
64936;SDS011;51452;47.698;19.050;2023-12-20T02:38:12;29.07;;;10.60;;
64936;SDS011;51452;47.698;19.050;2023-12-20T02:40:37;27.23;;;11.30;;
64936;SDS011;51452;47.698;19.050;2023-12-20T02:43:03;25.03;;;10.83;;
64936;SDS011;51452;47.698;19.050;2023-12-20T02:45:28;22.90;;;10.47;;
64936;SDS011;51452;47.698;19.050;2023-12-20T02:47:54;25.90;;;11.17;;
64936;SDS011;51452;47.698;19.050;2023-12-20T02:50:19;23.10;;;9.67;;
64936;SDS011;51452;47.698;19.050;2023-12-20T02:52:45;26.77;;;10.50;;
64936;SDS011;51452;47.698;19.050;2023-12-20T02:55:11;31.30;;;11.37;;
64936;SDS011;51452;47.698;19.050;2023-12-20T02:57:36;24.90;;;11.13;;
64936;SDS011;51452;47.698;19.050;2023-12-20T03:00:06;26.20;;;10.23;;
64936;SDS011;51452;47.698;19.050;2023-12-20T03:02:35;28.37;;;10.47;;
64936;SDS011;51452;47.698;19.050;2023-12-20T03:05:01;22.13;;;9.67;;
64936;SDS011;51452;47.698;19.050;2023-12-20T03:07:27;27.70;;;10.77;;
64936;SDS011;51452;47.698;19.050;2023-12-20T03:09:53;26.17;;;10.40;;
64936;SDS011;51452;47.698;19.050;2023-12-20T03:12:18;26.93;;;10.10;;
64936;SDS011;51452;47.698;19.050;2023-12-20T03:14:44;20.10;;;8.33;;
64936;SDS011;51452;47.698;19.050;2023-12-20T03:17:09;19.93;;;9.50;;
64936;SDS011;51452;47.698;19.050;2023-12-20T03:19:35;34.50;;;9.60;;
64936;SDS011;51452;47.698;19.050;2023-12-20T03:22:00;28.53;;;11.07;;
64936;SDS011;51452;47.698;19.050;2023-12-20T03:24:26;35.17;;;10.87;;
64936;SDS011;51452;47.698;19.050;2023-12-20T03:26:52;30.67;;;10.23;;
64936;SDS011;51452;47.698;19.050;2023-12-20T03:29:17;28.77;;;11.43;;
64936;SDS011;51452;47.698;19.050;2023-12-20T03:31:45;25.97;;;10.97;;
64936;SDS011;51452;47.698;19.050;2023-12-20T03:34:11;28.97;;;10.50;;
64936;SDS011;51452;47.698;19.050;2023-12-20T03:36:37;23.70;;;10.50;;
64936;SDS011;51452;47.698;19.050;2023-12-20T03:39:04;27.47;;;10.87;;
64936;SDS011;51452;47.698;19.050;2023-12-20T03:41:30;31.90;;;12.23;;
64936;SDS011;51452;47.698;19.050;2023-12-20T03:43:55;26.03;;;11.40;;
64936;SDS011;51452;47.698;19.050;2023-12-20T03:46:20;25.13;;;10.67;;
64936;SDS011;51452;47.698;19.050;2023-12-20T03:48:46;24.33;;;10.17;;
64936;SDS011;51452;47.698;19.050;2023-12-20T03:51:11;28.33;;;11.07;;
64936;SDS011;51452;47.698;19.050;2023-12-20T03:53:37;29.10;;;11.00;;
64936;SDS011;51452;47.698;19.050;2023-12-20T03:56:02;27.67;;;11.70;;
64936;SDS011;51452;47.698;19.050;2023-12-20T03:58:28;33.93;;;11.07;;
64936;SDS011;51452;47.698;19.050;2023-12-20T04:00:54;30.77;;;11.33;;
64936;SDS011;51452;47.698;19.050;2023-12-20T04:03:19;25.87;;;10.93;;
64936;SDS011;51452;47.698;19.050;2023-12-20T04:05:44;31.20;;;10.97;;
64936;SDS011;51452;47.698;19.050;2023-12-20T04:08:10;26.33;;;10.90;;
64936;SDS011;51452;47.698;19.050;2023-12-20T04:10:36;25.60;;;11.37;;
64936;SDS011;51452;47.698;19.050;2023-12-20T04:13:04;35.27;;;11.97;;
64936;SDS011;51452;47.698;19.050;2023-12-20T04:15:30;24.37;;;10.10;;
64936;SDS011;51452;47.698;19.050;2023-12-20T04:17:55;39.43;;;11.37;;
64936;SDS011;51452;47.698;19.050;2023-12-20T04:20:20;31.80;;;10.60;;
64936;SDS011;51452;47.698;19.050;2023-12-20T04:22:46;23.83;;;11.03;;
64936;SDS011;51452;47.698;19.050;2023-12-20T04:25:11;29.37;;;10.83;;
64936;SDS011;51452;47.698;19.050;2023-12-20T04:27:36;24.13;;;10.70;;
64936;SDS011;51452;47.698;19.050;2023-12-20T04:30:02;22.43;;;10.27;;
64936;SDS011;51452;47.698;19.050;2023-12-20T04:32:28;23.00;;;10.77;;
64936;SDS011;51452;47.698;19.050;2023-12-20T04:34:54;27.50;;;11.77;;
64936;SDS011;51452;47.698;19.050;2023-12-20T04:37:20;29.10;;;11.47;;
64936;SDS011;51452;47.698;19.050;2023-12-20T04:39:45;25.57;;;11.63;;
64936;SDS011;51452;47.698;19.050;2023-12-20T04:42:11;25.10;;;11.87;;
64936;SDS011;51452;47.698;19.050;2023-12-20T04:44:36;24.27;;;10.93;;
64936;SDS011;51452;47.698;19.050;2023-12-20T04:47:01;30.93;;;12.23;;
64936;SDS011;51452;47.698;19.050;2023-12-20T04:49:27;23.73;;;10.93;;
64936;SDS011;51452;47.698;19.050;2023-12-20T04:51:52;31.90;;;10.70;;
64936;SDS011;51452;47.698;19.050;2023-12-20T04:54:17;22.03;;;10.13;;
64936;SDS011;51452;47.698;19.050;2023-12-20T04:56:43;28.60;;;10.57;;
64936;SDS011;51452;47.698;19.050;2023-12-20T04:59:08;22.73;;;11.23;;
64936;SDS011;51452;47.698;19.050;2023-12-20T05:01:34;27.53;;;11.13;;
64936;SDS011;51452;47.698;19.050;2023-12-20T05:03:59;23.97;;;11.10;;
64936;SDS011;51452;47.698;19.050;2023-12-20T05:06:24;24.53;;;11.57;;
64936;SDS011;51452;47.698;19.050;2023-12-20T05:08:50;28.50;;;10.37;;
64936;SDS011;51452;47.698;19.050;2023-12-20T05:11:15;23.90;;;10.43;;
64936;SDS011;51452;47.698;19.050;2023-12-20T05:13:41;26.20;;;10.47;;
64936;SDS011;51452;47.698;19.050;2023-12-20T05:16:06;25.67;;;11.60;;
64936;SDS011;51452;47.698;19.050;2023-12-20T05:18:31;25.37;;;10.40;;
64936;SDS011;51452;47.698;19.050;2023-12-20T05:20:57;30.40;;;12.57;;
64936;SDS011;51452;47.698;19.050;2023-12-20T05:23:23;25.83;;;10.80;;
64936;SDS011;51452;47.698;19.050;2023-12-20T05:25:48;25.03;;;12.00;;
64936;SDS011;51452;47.698;19.050;2023-12-20T05:28:14;23.50;;;11.40;;
64936;SDS011;51452;47.698;19.050;2023-12-20T05:30:40;23.43;;;12.03;;
64936;SDS011;51452;47.698;19.050;2023-12-20T05:33:05;25.43;;;12.37;;
64936;SDS011;51452;47.698;19.050;2023-12-20T05:35:30;27.67;;;13.07;;
64936;SDS011;51452;47.698;19.050;2023-12-20T05:37:56;29.13;;;13.53;;
64936;SDS011;51452;47.698;19.050;2023-12-20T05:40:21;25.83;;;12.70;;
64936;SDS011;51452;47.698;19.050;2023-12-20T05:42:46;28.63;;;13.10;;
64936;SDS011;51452;47.698;19.050;2023-12-20T05:45:12;25.57;;;11.87;;
64936;SDS011;51452;47.698;19.050;2023-12-20T05:47:38;27.90;;;12.77;;
64936;SDS011;51452;47.698;19.050;2023-12-20T05:50:03;23.47;;;11.90;;
64936;SDS011;51452;47.698;19.050;2023-12-20T05:52:29;25.63;;;11.67;;
64936;SDS011;51452;47.698;19.050;2023-12-20T05:54:54;24.70;;;11.70;;
64936;SDS011;51452;47.698;19.050;2023-12-20T05:57:21;24.97;;;12.17;;
64936;SDS011;51452;47.698;19.050;2023-12-20T05:59:48;31.80;;;12.53;;
64936;SDS011;51452;47.698;19.050;2023-12-20T06:02:13;34.70;;;13.97;;
64936;SDS011;51452;47.698;19.050;2023-12-20T06:04:41;27.93;;;12.77;;
64936;SDS011;51452;47.698;19.050;2023-12-20T06:07:07;28.73;;;12.63;;
64936;SDS011;51452;47.698;19.050;2023-12-20T06:09:33;31.20;;;12.13;;
64936;SDS011;51452;47.698;19.050;2023-12-20T06:11:58;32.17;;;13.70;;
64936;SDS011;51452;47.698;19.050;2023-12-20T06:14:24;27.67;;;12.70;;
64936;SDS011;51452;47.698;19.050;2023-12-20T06:16:49;31.53;;;12.43;;
64936;SDS011;51452;47.698;19.050;2023-12-20T06:19:14;26.37;;;11.37;;
64936;SDS011;51452;47.698;19.050;2023-12-20T06:21:40;29.07;;;11.97;;
64936;SDS011;51452;47.698;19.050;2023-12-20T06:24:05;28.83;;;12.07;;
64936;SDS011;51452;47.698;19.050;2023-12-20T06:26:31;29.07;;;11.90;;
64936;SDS011;51452;47.698;19.050;2023-12-20T06:28:56;30.23;;;11.80;;
64936;SDS011;51452;47.698;19.050;2023-12-20T06:31:22;29.37;;;12.60;;
64936;SDS011;51452;47.698;19.050;2023-12-20T06:33:47;35.83;;;12.50;;
64936;SDS011;51452;47.698;19.050;2023-12-20T06:36:14;28.60;;;12.37;;
64936;SDS011;51452;47.698;19.050;2023-12-20T06:38:40;30.90;;;10.73;;
64936;SDS011;51452;47.698;19.050;2023-12-20T06:41:07;26.53;;;10.93;;
64936;SDS011;51452;47.698;19.050;2023-12-20T06:43:32;44.27;;;10.97;;
64936;SDS011;51452;47.698;19.050;2023-12-20T06:46:00;24.70;;;9.67;;
64936;SDS011;51452;47.698;19.050;2023-12-20T06:48:25;26.40;;;11.77;;
64936;SDS011;51452;47.698;19.050;2023-12-20T06:50:51;38.60;;;11.13;;
64936;SDS011;51452;47.698;19.050;2023-12-20T06:53:16;36.77;;;12.07;;
64936;SDS011;51452;47.698;19.050;2023-12-20T06:55:41;25.87;;;10.67;;
64936;SDS011;51452;47.698;19.050;2023-12-20T06:58:07;37.67;;;10.20;;
64936;SDS011;51452;47.698;19.050;2023-12-20T07:00:33;33.10;;;10.80;;
64936;SDS011;51452;47.698;19.050;2023-12-20T07:02:59;25.80;;;11.53;;
64936;SDS011;51452;47.698;19.050;2023-12-20T07:05:24;24.57;;;11.10;;
64936;SDS011;51452;47.698;19.050;2023-12-20T07:07:50;31.63;;;11.20;;
64936;SDS011;51452;47.698;19.050;2023-12-20T07:10:16;30.87;;;10.97;;
64936;SDS011;51452;47.698;19.050;2023-12-20T07:12:41;23.23;;;10.53;;
64936;SDS011;51452;47.698;19.050;2023-12-20T07:15:07;26.27;;;10.80;;
64936;SDS011;51452;47.698;19.050;2023-12-20T07:17:33;27.27;;;11.93;;
64936;SDS011;51452;47.698;19.050;2023-12-20T07:19:59;29.73;;;11.37;;
64936;SDS011;51452;47.698;19.050;2023-12-20T07:22:28;23.63;;;11.07;;
64936;SDS011;51452;47.698;19.050;2023-12-20T07:25:00;22.50;;;11.10;;
64936;SDS011;51452;47.698;19.050;2023-12-20T07:27:26;21.80;;;10.67;;
64936;SDS011;51452;47.698;19.050;2023-12-20T07:29:51;20.17;;;11.30;;
64936;SDS011;51452;47.698;19.050;2023-12-20T07:32:17;21.90;;;10.63;;
64936;SDS011;51452;47.698;19.050;2023-12-20T07:34:42;22.70;;;10.83;;
64936;SDS011;51452;47.698;19.050;2023-12-20T07:37:08;22.67;;;11.10;;
64936;SDS011;51452;47.698;19.050;2023-12-20T07:39:36;29.53;;;12.30;;
64936;SDS011;51452;47.698;19.050;2023-12-20T07:42:02;24.77;;;12.20;;
64936;SDS011;51452;47.698;19.050;2023-12-20T07:44:28;23.47;;;12.07;;
64936;SDS011;51452;47.698;19.050;2023-12-20T07:46:53;24.67;;;11.30;;
64936;SDS011;51452;47.698;19.050;2023-12-20T07:49:19;23.73;;;11.50;;
64936;SDS011;51452;47.698;19.050;2023-12-20T07:51:44;23.83;;;11.73;;
64936;SDS011;51452;47.698;19.050;2023-12-20T07:54:09;20.93;;;10.00;;
64936;SDS011;51452;47.698;19.050;2023-12-20T07:56:35;25.23;;;11.00;;
64936;SDS011;51452;47.698;19.050;2023-12-20T07:59:00;24.83;;;11.13;;
64936;SDS011;51452;47.698;19.050;2023-12-20T08:01:26;29.90;;;12.30;;
64936;SDS011;51452;47.698;19.050;2023-12-20T08:03:51;23.50;;;10.03;;
64936;SDS011;51452;47.698;19.050;2023-12-20T08:06:17;24.50;;;11.17;;
64936;SDS011;51452;47.698;19.050;2023-12-20T08:08:42;20.40;;;9.50;;
64936;SDS011;51452;47.698;19.050;2023-12-20T08:11:08;23.53;;;10.50;;
64936;SDS011;51452;47.698;19.050;2023-12-20T08:13:33;26.13;;;11.83;;
64936;SDS011;51452;47.698;19.050;2023-12-20T08:15:59;22.63;;;11.07;;
64936;SDS011;51452;47.698;19.050;2023-12-20T08:18:24;24.47;;;11.07;;
64936;SDS011;51452;47.698;19.050;2023-12-20T08:20:50;21.20;;;10.80;;
64936;SDS011;51452;47.698;19.050;2023-12-20T08:23:17;24.53;;;10.17;;
64936;SDS011;51452;47.698;19.050;2023-12-20T08:25:44;21.97;;;10.50;;
64936;SDS011;51452;47.698;19.050;2023-12-20T08:28:09;22.50;;;10.50;;
64936;SDS011;51452;47.698;19.050;2023-12-20T08:30:35;142.83;;;37.67;;
64936;SDS011;51452;47.698;19.050;2023-12-20T08:33:00;25.50;;;10.30;;
64936;SDS011;51452;47.698;19.050;2023-12-20T08:35:26;23.47;;;10.70;;
64936;SDS011;51452;47.698;19.050;2023-12-20T08:37:51;21.60;;;10.47;;
64936;SDS011;51452;47.698;19.050;2023-12-20T08:40:17;29.93;;;10.73;;
64936;SDS011;51452;47.698;19.050;2023-12-20T08:42:42;27.83;;;12.33;;
64936;SDS011;51452;47.698;19.050;2023-12-20T08:45:07;31.47;;;12.70;;
64936;SDS011;51452;47.698;19.050;2023-12-20T08:47:33;28.10;;;11.63;;
64936;SDS011;51452;47.698;19.050;2023-12-20T08:49:58;24.77;;;10.93;;
64936;SDS011;51452;47.698;19.050;2023-12-20T08:52:25;23.10;;;10.63;;
64936;SDS011;51452;47.698;19.050;2023-12-20T08:54:52;25.50;;;10.87;;
64936;SDS011;51452;47.698;19.050;2023-12-20T08:57:19;26.70;;;10.83;;
64936;SDS011;51452;47.698;19.050;2023-12-20T08:59:46;21.37;;;10.80;;
64936;SDS011;51452;47.698;19.050;2023-12-20T09:02:12;23.80;;;10.63;;
64936;SDS011;51452;47.698;19.050;2023-12-20T09:04:37;23.70;;;9.90;;
64936;SDS011;51452;47.698;19.050;2023-12-20T09:07:03;25.53;;;10.00;;
64936;SDS011;51452;47.698;19.050;2023-12-20T09:09:28;27.57;;;10.43;;
64936;SDS011;51452;47.698;19.050;2023-12-20T09:11:54;21.47;;;9.13;;
64936;SDS011;51452;47.698;19.050;2023-12-20T09:14:19;25.07;;;10.23;;
64936;SDS011;51452;47.698;19.050;2023-12-20T09:16:45;34.17;;;9.63;;
64936;SDS011;51452;47.698;19.050;2023-12-20T09:19:10;20.07;;;10.20;;
64936;SDS011;51452;47.698;19.050;2023-12-20T09:21:35;29.63;;;11.10;;
64936;SDS011;51452;47.698;19.050;2023-12-20T09:24:01;28.90;;;11.87;;
64936;SDS011;51452;47.698;19.050;2023-12-20T09:26:26;30.57;;;11.87;;
64936;SDS011;51452;47.698;19.050;2023-12-20T09:28:52;27.67;;;13.00;;
64936;SDS011;51452;47.698;19.050;2023-12-20T09:31:17;33.10;;;11.07;;
64936;SDS011;51452;47.698;19.050;2023-12-20T09:33:42;23.57;;;11.07;;
64936;SDS011;51452;47.698;19.050;2023-12-20T09:36:08;30.67;;;12.13;;
64936;SDS011;51452;47.698;19.050;2023-12-20T09:38:33;28.60;;;11.50;;
64936;SDS011;51452;47.698;19.050;2023-12-20T09:40:58;24.47;;;11.37;;
64936;SDS011;51452;47.698;19.050;2023-12-20T09:43:24;27.70;;;12.90;;
64936;SDS011;51452;47.698;19.050;2023-12-20T09:45:52;38.73;;;13.40;;
64936;SDS011;51452;47.698;19.050;2023-12-20T09:48:18;32.57;;;14.17;;
64936;SDS011;51452;47.698;19.050;2023-12-20T09:50:44;38.27;;;14.13;;
64936;SDS011;51452;47.698;19.050;2023-12-20T09:53:11;33.27;;;14.07;;
64936;SDS011;51452;47.698;19.050;2023-12-20T09:55:40;27.83;;;12.10;;
64936;SDS011;51452;47.698;19.050;2023-12-20T09:58:07;32.87;;;13.50;;
64936;SDS011;51452;47.698;19.050;2023-12-20T10:00:33;33.83;;;13.10;;
64936;SDS011;51452;47.698;19.050;2023-12-20T10:03:00;28.33;;;11.77;;
64936;SDS011;51452;47.698;19.050;2023-12-20T10:05:30;31.20;;;12.87;;
64936;SDS011;51452;47.698;19.050;2023-12-20T10:07:57;32.70;;;13.13;;
64936;SDS011;51452;47.698;19.050;2023-12-20T10:10:24;31.93;;;13.57;;
64936;SDS011;51452;47.698;19.050;2023-12-20T10:13:05;32.87;;;13.13;;
64936;SDS011;51452;47.698;19.050;2023-12-20T10:15:40;33.70;;;13.63;;
64936;SDS011;51452;47.698;19.050;2023-12-20T10:18:06;34.27;;;14.07;;
64936;SDS011;51452;47.698;19.050;2023-12-20T10:20:32;34.87;;;14.20;;
64936;SDS011;51452;47.698;19.050;2023-12-20T10:22:58;33.27;;;13.87;;
64936;SDS011;51452;47.698;19.050;2023-12-20T10:25:24;33.27;;;12.90;;
64936;SDS011;51452;47.698;19.050;2023-12-20T10:27:50;32.70;;;14.17;;
64936;SDS011;51452;47.698;19.050;2023-12-20T10:30:42;32.63;;;14.20;;
64936;SDS011;51452;47.698;19.050;2023-12-20T10:33:08;33.33;;;13.57;;
64936;SDS011;51452;47.698;19.050;2023-12-20T10:35:34;37.10;;;14.10;;
64936;SDS011;51452;47.698;19.050;2023-12-20T10:38:03;32.77;;;14.47;;
64936;SDS011;51452;47.698;19.050;2023-12-20T10:40:30;34.83;;;12.77;;
64936;SDS011;51452;47.698;19.050;2023-12-20T10:42:56;33.23;;;13.13;;
64936;SDS011;51452;47.698;19.050;2023-12-20T10:45:23;36.50;;;12.13;;
64936;SDS011;51452;47.698;19.050;2023-12-20T10:47:48;32.07;;;12.83;;
64936;SDS011;51452;47.698;19.050;2023-12-20T10:50:15;29.97;;;13.53;;
64936;SDS011;51452;47.698;19.050;2023-12-20T10:52:41;37.13;;;13.70;;
64936;SDS011;51452;47.698;19.050;2023-12-20T10:55:07;35.20;;;13.13;;
64936;SDS011;51452;47.698;19.050;2023-12-20T10:57:33;29.53;;;13.47;;
64936;SDS011;51452;47.698;19.050;2023-12-20T11:00:01;32.30;;;13.47;;
64936;SDS011;51452;47.698;19.050;2023-12-20T11:02:32;34.13;;;14.03;;
64936;SDS011;51452;47.698;19.050;2023-12-20T11:07:41;28.03;;;12.70;;
64936;SDS011;51452;47.698;19.050;2023-12-20T11:10:20;28.33;;;13.57;;
64936;SDS011;51452;47.698;19.050;2023-12-20T11:12:52;24.43;;;13.03;;
64936;SDS011;51452;47.698;19.050;2023-12-20T11:15:27;30.57;;;14.03;;
64936;SDS011;51452;47.698;19.050;2023-12-20T11:17:56;28.23;;;13.40;;
64936;SDS011;51452;47.698;19.050;2023-12-20T11:20:23;32.43;;;14.70;;
64936;SDS011;51452;47.698;19.050;2023-12-20T11:22:58;36.30;;;15.25;;
64936;SDS011;51452;47.698;19.050;2023-12-20T11:25:23;32.20;;;14.77;;
64936;SDS011;51452;47.698;19.050;2023-12-20T11:28:09;36.47;;;17.07;;
64936;SDS011;51452;47.698;19.050;2023-12-20T11:30:42;38.63;;;17.45;;
64936;SDS011;51452;47.698;19.050;2023-12-20T11:33:12;36.83;;;17.07;;
64936;SDS011;51452;47.698;19.050;2023-12-20T11:35:39;47.50;;;17.50;;
64936;SDS011;51452;47.698;19.050;2023-12-20T11:38:07;40.83;;;18.97;;
64936;SDS011;51452;47.698;19.050;2023-12-20T11:40:33;45.10;;;20.33;;
64936;SDS011;51452;47.698;19.050;2023-12-20T11:42:59;36.40;;;18.87;;
64936;SDS011;51452;47.698;19.050;2023-12-20T11:45:25;37.00;;;18.10;;
64936;SDS011;51452;47.698;19.050;2023-12-20T11:47:52;40.67;;;19.47;;
64936;SDS011;51452;47.698;19.050;2023-12-20T11:50:21;43.33;;;19.93;;
64936;SDS011;51452;47.698;19.050;2023-12-20T11:52:47;44.40;;;20.23;;
64936;SDS011;51452;47.698;19.050;2023-12-20T11:55:14;43.70;;;20.50;;
64936;SDS011;51452;47.698;19.050;2023-12-20T11:57:39;43.90;;;19.03;;
64936;SDS011;51452;47.698;19.050;2023-12-20T12:00:05;39.93;;;19.20;;
64936;SDS011;51452;47.698;19.050;2023-12-20T12:02:31;36.80;;;17.23;;
64936;SDS011;51452;47.698;19.050;2023-12-20T12:04:57;37.00;;;17.13;;
64936;SDS011;51452;47.698;19.050;2023-12-20T12:07:23;39.63;;;18.83;;
64936;SDS011;51452;47.698;19.050;2023-12-20T12:09:49;38.43;;;18.23;;
64936;SDS011;51452;47.698;19.050;2023-12-20T12:12:15;32.67;;;16.80;;
64936;SDS011;51452;47.698;19.050;2023-12-20T12:14:40;32.70;;;15.97;;
64936;SDS011;51452;47.698;19.050;2023-12-20T12:17:12;30.73;;;15.57;;
64936;SDS011;51452;47.698;19.050;2023-12-20T12:19:38;31.87;;;14.77;;
64936;SDS011;51452;47.698;19.050;2023-12-20T12:24:36;28.30;;;15.33;;
64936;SDS011;51452;47.698;19.050;2023-12-20T12:27:02;25.90;;;13.50;;
64936;SDS011;51452;47.698;19.050;2023-12-20T12:29:28;10.83;;;6.27;;
64936;SDS011;51452;47.698;19.050;2023-12-20T12:31:54;13.33;;;5.93;;
64936;SDS011;51452;47.698;19.050;2023-12-20T12:34:19;10.73;;;6.13;;
64936;SDS011;51452;47.698;19.050;2023-12-20T12:36:45;11.20;;;6.57;;
64936;SDS011;51452;47.698;19.050;2023-12-20T12:39:17;12.77;;;7.87;;
64936;SDS011;51452;47.698;19.050;2023-12-20T12:41:43;16.80;;;8.53;;
64936;SDS011;51452;47.698;19.050;2023-12-20T12:44:08;16.03;;;9.57;;
64936;SDS011;51452;47.698;19.050;2023-12-20T12:46:34;19.47;;;10.77;;
64936;SDS011;51452;47.698;19.050;2023-12-20T12:49:00;11.00;;;6.83;;
64936;SDS011;51452;47.698;19.050;2023-12-20T12:51:25;9.67;;;6.17;;
64936;SDS011;51452;47.698;19.050;2023-12-20T12:53:51;11.10;;;6.27;;
64936;SDS011;51452;47.698;19.050;2023-12-20T12:56:16;12.10;;;6.80;;
64936;SDS011;51452;47.698;19.050;2023-12-20T12:58:42;9.87;;;6.03;;
64936;SDS011;51452;47.698;19.050;2023-12-20T13:01:08;8.27;;;5.27;;
64936;SDS011;51452;47.698;19.050;2023-12-20T13:03:34;10.83;;;6.63;;
64936;SDS011;51452;47.698;19.050;2023-12-20T13:06:00;11.90;;;6.00;;
64936;SDS011;51452;47.698;19.050;2023-12-20T13:08:25;10.23;;;6.17;;
64936;SDS011;51452;47.698;19.050;2023-12-20T13:10:51;11.20;;;5.87;;
64936;SDS011;51452;47.698;19.050;2023-12-20T13:13:17;10.77;;;6.60;;
64936;SDS011;51452;47.698;19.050;2023-12-20T13:15:43;9.97;;;6.37;;
64936;SDS011;51452;47.698;19.050;2023-12-20T13:18:15;8.57;;;5.53;;
64936;SDS011;51452;47.698;19.050;2023-12-20T13:20:41;11.13;;;5.93;;
64936;SDS011;51452;47.698;19.050;2023-12-20T13:23:06;9.93;;;5.70;;
64936;SDS011;51452;47.698;19.050;2023-12-20T13:25:32;8.57;;;5.00;;
64936;SDS011;51452;47.698;19.050;2023-12-20T13:27:58;8.00;;;5.47;;
64936;SDS011;51452;47.698;19.050;2023-12-20T13:30:24;9.33;;;5.57;;
64936;SDS011;51452;47.698;19.050;2023-12-20T13:32:53;10.20;;;5.60;;
64936;SDS011;51452;47.698;19.050;2023-12-20T13:35:18;8.73;;;5.27;;
64936;SDS011;51452;47.698;19.050;2023-12-20T13:37:44;8.53;;;4.93;;
64936;SDS011;51452;47.698;19.050;2023-12-20T13:40:10;8.03;;;5.17;;
64936;SDS011;51452;47.698;19.050;2023-12-20T13:42:36;6.83;;;4.07;;
64936;SDS011;51452;47.698;19.050;2023-12-20T13:45:01;7.67;;;4.13;;
64936;SDS011;51452;47.698;19.050;2023-12-20T13:47:27;8.47;;;5.13;;
64936;SDS011;51452;47.698;19.050;2023-12-20T13:49:54;8.97;;;4.93;;
64936;SDS011;51452;47.698;19.050;2023-12-20T13:52:21;7.73;;;4.70;;
64936;SDS011;51452;47.698;19.050;2023-12-20T13:54:46;7.77;;;4.60;;
64936;SDS011;51452;47.698;19.050;2023-12-20T13:57:12;8.03;;;4.30;;
64936;SDS011;51452;47.698;19.050;2023-12-20T13:59:38;7.37;;;4.43;;
64936;SDS011;51452;47.698;19.050;2023-12-20T14:02:03;6.17;;;4.37;;
64936;SDS011;51452;47.698;19.050;2023-12-20T14:04:31;6.17;;;4.07;;
64936;SDS011;51452;47.698;19.050;2023-12-20T14:06:57;7.03;;;4.13;;
64936;SDS011;51452;47.698;19.050;2023-12-20T14:09:23;8.37;;;4.33;;